< < Back
Terminal Aerodrome Forecast


Current Version              Previous Versions:   1  2  3  4  5  6  7  8  9  

Terminal Aerodrome Forecast

020
FTUS42 KFFC 301729
TAFCSG
TAF
KCSG 301729Z 3018/3118 07010G18KT P6SM VCSH SCT035 SCT160
     FM302300 07006KT P6SM SCT050
     FM310200 08005KT P6SM FEW060
     FM311000 06007KT P6SM SCT120
     FM311400 06009KT P6SM FEW030
     FM311600 06006KT P6SM SCT050=



Latest METAR

705
SAUS70 KWBC 302200
MTRCSG
METAR KCSG 302151Z 07008KT 10SM FEW002 FEW070 33/17 A2993 RMK AO2 LTG
DSNT SE SLP128 T03330167 $


USA.gov is the U.S. government's official web portal to all federal, state and local government web resources and services.